Time;durP1;ratioP1;P1;durP2;ratioP2;P2;SDS_P1;SDS_P2;PMS_P1;PMS_P2;Temp;Humidity;BMP_temperature;BMP_pressure;BME280_temperature;BME280_humidity;BME280_pressure;Samples;Min_cycle;Max_cycle;Signal;HPM_P1;HPM_P2
2022/07/29 00:00:15;;;;;;;2.13;1.02;;;;;;;14.19;89.48;101999.59;4908158;29;20087;-79
2022/07/29 00:02:40;;;;;;;2.28;1.00;;;;;;;14.18;89.01;101997.84;4891949;29;20322;-79
2022/07/29 00:05:08;;;;;;;2.25;1.10;;;;;;;14.20;89.38;101988.00;4898126;29;20046;-78
2022/07/29 00:07:33;;;;;;;1.15;0.90;;;;;;;14.21;89.91;101991.50;4912001;29;20180;-78
2022/07/29 00:10:02;;;;;;;1.35;1.08;;;;;;;14.22;89.68;101993.25;4910649;29;20119;-79
2022/07/29 00:12:30;;;;;;;1.23;0.95;;;;;;;14.22;89.31;101990.59;4899966;29;20268;-78
2022/07/29 00:14:56;;;;;;;1.85;1.10;;;;;;;14.24;89.39;101986.94;4893067;29;21511;-79
2022/07/29 00:17:23;;;;;;;2.13;1.20;;;;;;;14.25;89.44;101991.34;4909833;29;21194;-79
2022/07/29 00:19:48;;;;;;;1.00;0.90;;;;;;;14.27;90.61;101983.25;4892344;29;20028;-78
2022/07/29 00:22:14;;;;;;;1.67;1.23;;;;;;;14.30;90.04;101982.25;4881670;29;20261;-79
2022/07/29 00:24:39;;;;;;;1.25;1.15;;;;;;;14.30;89.89;101975.16;4908620;29;20111;-79
2022/07/29 00:27:06;;;;;;;1.33;1.02;;;;;;;14.32;90.04;101977.75;4893988;29;20170;-79
2022/07/29 00:29:31;;;;;;;4.13;1.50;;;;;;;14.33;90.39;101968.81;4893589;29;20079;-78
2022/07/29 00:31:57;;;;;;;2.20;1.23;;;;;;;14.34;90.51;101970.56;4878313;29;20263;-78
2022/07/29 00:37:26;;;;;;;1.30;1.00;;;;;;;14.36;90.50;101968.69;4839459;29;20107;-78
2022/07/29 00:39:52;;;;;;;1.02;1.00;;;;;;;14.38;90.34;101964.13;4850259;29;20610;-80
2022/07/29 00:42:17;;;;;;;1.17;1.10;;;;;;;14.38;90.44;101956.16;4861448;29;21944;-79
2022/07/29 00:44:43;;;;;;;1.50;1.35;;;;;;;14.40;90.81;101956.97;4893723;29;20036;-79
2022/07/29 00:47:10;;;;;;;1.30;1.10;;;;;;;14.42;90.87;101957.75;4914194;29;20035;-78
2022/07/29 00:49:36;;;;;;;1.75;1.10;;;;;;;14.43;91.17;101946.16;4911110;29;20031;-80
2022/07/29 00:52:03;;;;;;;1.10;1.00;;;;;;;14.41;91.30;101948.03;4895089;29;20063;-78
2022/07/29 00:54:29;;;;;;;1.15;1.05;;;;;;;14.41;91.04;101945.38;4908381;29;20771;-78
2022/07/29 00:56:59;;;;;;;0.98;0.90;;;;;;;14.39;91.16;101942.78;4897134;29;20050;-78
2022/07/29 00:59:26;;;;;;;1.23;1.00;;;;;;;14.39;91.50;101944.59;4904094;29;20047;-78
2022/07/29 01:01:53;;;;;;;1.13;0.93;;;;;;;14.38;91.29;101946.38;4884782;29;20119;-79
2022/07/29 01:04:19;;;;;;;2.80;1.10;;;;;;;14.39;91.44;101941.91;4895094;29;20130;-80
2022/07/29 01:06:45;;;;;;;1.58;1.10;;;;;;;14.38;92.19;101941.03;4914055;29;20046;-78
2022/07/29 01:09:10;;;;;;;2.45;1.08;;;;;;;14.39;91.89;101945.44;4902863;29;21057;-79
2022/07/29 01:11:36;;;;;;;1.80;1.10;;;;;;;14.40;91.99;101933.00;4895455;29;20045;-78
2022/07/29 01:14:03;;;;;;;0.80;0.80;;;;;;;14.41;91.67;101932.06;4896251;29;20465;-78
2022/07/29 01:16:33;;;;;;;1.48;1.00;;;;;;;14.41;92.18;101932.06;4913480;29;20341;-78
2022/07/29 01:19:07;;;;;;;2.45;1.17;;;;;;;14.41;92.34;101929.38;4913358;29;21419;-79
2022/07/29 01:21:46;;;;;;;1.65;1.10;;;;;;;14.42;92.17;101933.78;4885461;29;20032;-78
2022/07/29 01:24:45;;;;;;;1.17;0.88;;;;;;;14.41;93.11;101929.38;4911072;29;20590;-78
2022/07/29 01:27:19;;;;;;;1.30;1.05;;;;;;;14.43;92.40;101927.50;4901299;29;20390;-79
2022/07/29 01:29:57;;;;;;;1.15;1.08;;;;;;;14.43;92.68;101932.84;4912096;29;20180;-78
2022/07/29 01:32:31;;;;;;;2.13;1.08;;;;;;;14.41;92.94;101924.06;4909642;29;20040;-79
2022/07/29 01:35:08;;;;;;;2.55;1.10;;;;;;;14.40;92.87;101928.50;4893890;29;20395;-79
2022/07/29 01:37:59;;;;;;;1.80;1.23;;;;;;;14.40;93.94;101917.84;4897065;29;20507;-79
2022/07/29 01:40:36;;;;;;;1.10;0.90;;;;;;;14.40;93.63;101912.53;4911193;29;20032;-79
2022/07/29 01:43:09;;;;;;;4.22;1.25;;;;;;;14.39;93.28;101909.94;4894598;29;20032;-79
2022/07/29 01:46:02;;;;;;;1.20;1.10;;;;;;;14.40;94.46;101911.69;4909832;29;20622;-79
2022/07/29 01:48:39;;;;;;;2.15;1.00;;;;;;;14.39;93.21;101908.13;4875492;29;20063;-79
2022/07/29 01:51:21;;;;;;;2.40;1.15;;;;;;;14.40;93.90;101899.22;4911273;29;20072;-78
2022/07/29 01:54:10;;;;;;;1.33;1.23;;;;;;;14.41;93.74;101894.75;4883736;29;20070;-79
2022/07/29 01:56:37;;;;;;;1.33;1.00;;;;;;;14.41;93.86;101908.06;4910307;29;20047;-79
2022/07/29 01:59:04;;;;;;;2.53;1.15;;;;;;;14.42;93.42;101888.50;4879751;29;20035;-78
2022/07/29 02:01:31;;;;;;;1.15;1.05;;;;;;;14.44;94.37;101889.28;4892560;29;21473;-79
2022/07/29 02:03:57;;;;;;;1.75;0.90;;;;;;;14.45;93.61;101891.03;4892389;29;20135;-80
2022/07/29 02:06:24;;;;;;;2.60;1.02;;;;;;;14.46;93.20;101883.88;4892917;29;20038;-77
2022/07/29 02:08:50;;;;;;;1.30;1.20;;;;;;;14.47;93.63;101870.50;4898027;29;20623;-79
2022/07/29 02:11:16;;;;;;;1.80;1.30;;;;;;;14.47;93.98;101873.16;4885724;29;20167;-79
2022/07/29 02:13:42;;;;;;;2.05;1.00;;;;;;;14.49;94.26;101863.28;4894034;29;20519;-79
2022/07/29 02:16:09;;;;;;;1.02;0.90;;;;;;;14.51;94.49;101866.75;4896250;29;20031;-79
2022/07/29 02:18:37;;;;;;;1.10;1.00;;;;;;;14.50;94.69;101861.50;4880957;29;20384;-79
2022/07/29 02:21:03;;;;;;;1.20;1.10;;;;;;;14.50;94.05;101867.69;4893062;29;20040;-79
2022/07/29 02:23:30;;;;;;;1.45;1.00;;;;;;;14.49;94.10;101873.94;4892513;29;20454;-78
2022/07/29 02:25:57;;;;;;;1.02;1.00;;;;;;;14.48;94.12;101872.22;4877217;29;20038;-78
2022/07/29 02:28:25;;;;;;;2.05;1.35;;;;;;;14.49;94.54;101860.63;4884358;29;20035;-79
2022/07/29 02:30:52;;;;;;;1.60;1.35;;;;;;;14.49;94.14;101862.44;4893839;29;20035;-78
2022/07/29 02:33:18;;;;;;;1.55;1.08;;;;;;;14.48;94.38;101860.69;4878278;29;20088;-79
2022/07/29 02:35:45;;;;;;;1.15;0.75;;;;;;;14.48;94.16;101858.91;4894004;29;20224;-79
2022/07/29 02:40:59;;;;;;;1.02;0.88;;;;;;;14.47;94.64;101843.84;4899226;29;20043;-79
2022/07/29 02:43:25;;;;;;;1.10;1.00;;;;;;;14.48;94.45;101845.59;4895545;29;20067;-78
2022/07/29 02:45:53;;;;;;;2.60;1.15;;;;;;;14.49;94.08;101852.63;4908543;29;20068;-78
2022/07/29 02:48:23;;;;;;;2.60;1.10;;;;;;;14.50;94.21;101851.69;4884468;29;20038;-78
2022/07/29 02:50:59;;;;;;;1.65;1.40;;;;;;;14.51;94.50;101845.44;4892245;29;20624;-79
2022/07/29 02:53:26;;;;;;;1.58;1.08;;;;;;;14.51;94.47;101844.59;4894458;29;20036;-78
2022/07/29 02:55:57;;;;;;;2.15;1.27;;;;;;;14.50;94.57;101854.38;4909843;29;20039;-79
2022/07/29 02:58:29;;;;;;;2.55;1.23;;;;;;;14.49;94.33;101851.78;4893851;29;20042;-79
2022/07/29 03:01:04;;;;;;;1.52;1.23;;;;;;;14.49;94.40;101843.81;4892678;29;20172;-78
2022/07/29 03:03:35;;;;;;;1.55;1.10;;;;;;;14.48;94.86;101840.25;4909642;29;20122;-78
2022/07/29 03:06:01;;;;;;;1.10;1.00;;;;;;;14.49;93.84;101846.47;4877650;29;20115;-78
2022/07/29 03:08:30;;;;;;;1.70;1.13;;;;;;;14.51;93.82;101844.59;4908672;29;20030;-79
2022/07/29 03:10:56;;;;;;;1.00;0.98;;;;;;;14.49;94.13;101847.31;4908794;29;20047;-79
2022/07/29 03:13:22;;;;;;;2.13;1.05;;;;;;;14.50;94.07;101843.69;4880984;29;20060;-79
2022/07/29 03:15:48;;;;;;;1.25;1.15;;;;;;;14.51;93.94;101839.25;4877162;29;20032;-79
2022/07/29 03:18:14;;;;;;;3.88;1.13;;;;;;;14.49;93.48;101831.31;4910313;29;20491;-79
2022/07/29 03:20:40;;;;;;;1.23;1.10;;;;;;;14.50;93.73;101841.03;4908313;29;20057;-78
2022/07/29 03:23:07;;;;;;;1.20;1.10;;;;;;;14.52;93.66;101836.53;4892338;29;20123;-78
2022/07/29 03:25:33;;;;;;;1.25;1.15;;;;;;;14.53;94.03;101848.03;4893402;29;20091;-78
2022/07/29 03:27:58;;;;;;;1.52;1.10;;;;;;;14.53;93.61;101835.59;4867267;29;20040;-79
2022/07/29 03:30:24;;;;;;;3.63;1.35;;;;;;;14.54;93.96;101836.44;4879289;29;20043;-79
2022/07/29 03:32:50;;;;;;;2.50;1.30;;;;;;;14.55;93.99;101834.66;4894917;29;20043;-79
2022/07/29 03:35:22;;;;;;;3.05;1.15;;;;;;;14.54;93.41;101831.09;4895028;29;20040;-78
2022/07/29 03:37:48;;;;;;;1.60;1.20;;;;;;;14.53;93.65;101830.25;4890105;29;20113;-79
2022/07/29 03:40:18;;;;;;;1.45;1.30;;;;;;;14.54;93.68;101831.09;4909470;29;20044;-78
2022/07/29 03:42:45;;;;;;;1.42;1.10;;;;;;;14.52;93.46;101828.53;4890679;29;20438;-78
2022/07/29 03:45:15;;;;;;;1.52;1.23;;;;;;;14.52;93.46;101825.00;4866422;29;20083;-79
2022/07/29 03:47:48;;;;;;;1.35;1.15;;;;;;;14.53;93.20;101834.72;4885223;29;20482;-80
2022/07/29 03:50:15;;;;;;;2.42;1.10;;;;;;;14.51;93.05;101818.78;4894071;29;20071;-80
2022/07/29 03:52:40;;;;;;;1.92;1.20;;;;;;;14.49;93.07;101820.66;4876455;29;20083;-80
2022/07/29 03:55:07;;;;;;;2.78;1.10;;;;;;;14.50;93.27;101825.06;4906054;29;20040;-80
2022/07/29 03:57:33;;;;;;;1.42;1.30;;;;;;;14.50;93.20;101825.06;4892686;29;20035;-80
2022/07/29 03:59:59;;;;;;;3.75;1.10;;;;;;;14.49;93.56;101826.00;4893815;29;20035;-80
2022/07/29 04:02:25;;;;;;;1.77;1.00;;;;;;;14.48;93.48;101824.28;4890769;29;20036;-80
2022/07/29 04:04:51;;;;;;;3.58;1.05;;;;;;;14.48;93.48;101820.72;4890394;29;20055;-80
2022/07/29 04:07:16;;;;;;;2.20;1.20;;;;;;;14.47;93.37;101811.00;4891863;29;20044;-79
2022/07/29 04:09:42;;;;;;;2.63;1.10;;;;;;;14.46;93.71;101818.16;4908807;29;20051;-80
2022/07/29 04:12:08;;;;;;;2.05;1.17;;;;;;;14.46;93.48;101818.16;4908787;29;20051;-79
2022/07/29 04:14:34;;;;;;;1.15;0.95;;;;;;;14.46;93.70;101817.28;4893145;29;20150;-80
2022/07/29 04:17:04;;;;;;;3.72;0.95;;;;;;;14.45;93.75;101819.09;4893042;29;20644;-80
2022/07/29 04:19:30;;;;;;;1.33;1.00;;;;;;;14.44;93.58;101825.34;4907545;29;20047;-79
2022/07/29 04:21:59;;;;;;;0.95;0.82;;;;;;;14.43;93.49;101820.94;4908019;29;20039;-79
2022/07/29 04:24:26;;;;;;;1.92;0.98;;;;;;;14.43;93.39;101820.94;4875553;29;20036;-79
2022/07/29 04:26:52;;;;;;;0.90;0.88;;;;;;;14.42;93.26;101823.72;4877387;29;20308;-79
2022/07/29 04:29:17;;;;;;;3.15;1.00;;;;;;;14.43;93.54;101820.94;4890067;29;20495;-79
2022/07/29 04:31:48;;;;;;;3.67;1.30;;;;;;;14.45;93.61;101820.88;4908609;29;20039;-81
2022/07/29 04:34:14;;;;;;;1.17;1.10;;;;;;;14.45;93.54;101819.09;4877592;29;20032;-79
2022/07/29 04:36:40;;;;;;;1.25;0.90;;;;;;;14.44;93.61;101820.00;4894398;29;20036;-79
2022/07/29 04:39:06;;;;;;;1.05;0.95;;;;;;;14.45;93.68;101813.78;4874866;29;20636;-79
2022/07/29 04:41:31;;;;;;;1.15;0.85;;;;;;;14.46;93.52;101815.50;4879090;29;20034;-79
2022/07/29 04:43:57;;;;;;;0.90;0.90;;;;;;;14.48;93.32;101812.75;4891734;29;20162;-80
2022/07/29 04:46:23;;;;;;;1.10;0.90;;;;;;;14.48;93.25;101810.94;4890226;29;20039;-80
2022/07/29 04:48:48;;;;;;;0.90;0.90;;;;;;;14.49;93.03;101810.00;4908888;29;20098;-80
2022/07/29 04:51:15;;;;;;;1.20;1.10;;;;;;;14.50;93.28;101817.06;4875901;29;20039;-80
2022/07/29 04:53:40;;;;;;;2.42;1.13;;;;;;;14.50;93.02;101817.06;4866894;29;20479;-81
2022/07/29 04:56:06;;;;;;;1.85;1.00;;;;;;;14.50;93.04;101821.53;4908272;29;20035;-81
2022/07/29 04:58:34;;;;;;;1.55;1.27;;;;;;;14.50;92.85;101819.72;4891515;29;20043;-81
2022/07/29 05:00:59;;;;;;;1.67;1.00;;;;;;;14.50;93.09;101817.06;4890648;29;20070;-80
2022/07/29 05:03:25;;;;;;;1.10;1.05;;;;;;;14.49;93.47;101818.00;4893226;29;20040;-80
2022/07/29 05:05:51;;;;;;;1.98;1.00;;;;;;;14.49;93.36;101820.66;4890794;29;20024;-80
2022/07/29 05:08:16;;;;;;;1.38;0.88;;;;;;;14.49;93.26;101815.34;4890360;29;20032;-80
2022/07/29 05:10:42;;;;;;;2.58;0.95;;;;;;;14.51;92.72;101815.28;4898896;29;20036;-80
2022/07/29 05:13:08;;;;;;;2.30;1.20;;;;;;;14.51;92.76;101812.59;4908990;29;20055;-81
2022/07/29 05:15:34;;;;;;;2.85;0.90;;;;;;;14.54;92.73;101812.44;4891486;29;20106;-80
2022/07/29 05:18:00;;;;;;;1.83;1.02;;;;;;;14.56;93.20;101815.94;4891569;29;21477;-80
2022/07/29 05:20:29;;;;;;;1.23;0.90;;;;;;;14.58;92.98;101815.84;4909576;29;20523;-82
2022/07/29 05:23:00;;;;;;;2.47;1.08;;;;;;;14.59;92.85;101820.25;4892185;29;20040;-80
2022/07/29 05:25:27;;;;;;;1.27;1.00;;;;;;;14.60;92.60;101824.66;4892460;29;20062;-80
2022/07/29 05:27:53;;;;;;;0.80;0.80;;;;;;;14.58;92.46;101830.03;4876070;29;20042;-81
2022/07/29 05:30:19;;;;;;;6.18;1.00;;;;;;;14.61;92.82;101829.03;4908260;29;20032;-80
2022/07/29 05:32:45;;;;;;;1.15;0.80;;;;;;;14.63;92.52;101824.47;4892285;29;20091;-80
2022/07/29 05:35:11;;;;;;;1.02;0.93;;;;;;;14.64;92.83;101826.22;4886885;29;20032;-80
2022/07/29 05:37:36;;;;;;;1.00;1.00;;;;;;;14.66;92.58;101827.88;4895802;29;20032;-80
2022/07/29 05:40:03;;;;;;;1.88;1.17;;;;;;;14.69;92.10;101832.19;4899350;29;20130;-81
2022/07/29 05:42:29;;;;;;;1.42;0.90;;;;;;;14.73;92.16;101824.91;4895955;29;20127;-80
2022/07/29 05:44:55;;;;;;;2.75;1.35;;;;;;;14.82;92.79;101823.66;4910934;29;20138;-80
2022/07/29 05:47:21;;;;;;;1.75;1.08;;;;;;;14.93;92.37;101829.34;4894677;29;20044;-80
2022/07/29 05:49:47;;;;;;;1.30;1.15;;;;;;;14.99;91.97;101829.00;4913005;29;20040;-80
2022/07/29 05:52:15;;;;;;;1.92;1.00;;;;;;;15.07;92.01;101828.66;4912207;29;20051;-80
2022/07/29 05:54:40;;;;;;;1.58;0.90;;;;;;;15.19;91.20;101837.84;4912115;29;20210;-80
2022/07/29 05:57:06;;;;;;;1.70;1.20;;;;;;;15.29;90.73;101831.13;4912776;29;20040;-79
2022/07/29 05:59:36;;;;;;;2.97;1.35;;;;;;;15.43;90.53;101832.25;4909774;29;20039;-79
2022/07/29 06:02:01;;;;;;;0.90;0.90;;;;;;;15.59;90.21;101830.50;4892908;29;20086;-79
2022/07/29 06:04:27;;;;;;;3.47;1.17;;;;;;;15.73;89.71;101828.94;4878026;29;20158;-84
2022/07/29 06:06:55;;;;;;;1.33;0.90;;;;;;;15.84;88.88;101826.59;4895295;29;20462;-84
2022/07/29 06:09:22;;;;;;;2.00;1.02;;;;;;;15.90;88.64;101825.38;4893899;29;20966;-84
2022/07/29 06:11:48;;;;;;;1.40;1.00;;;;;;;15.97;88.41;101828.66;4896335;29;20063;-80
2022/07/29 06:14:13;;;;;;;1.13;1.00;;;;;;;16.07;88.09;101837.03;4894043;29;20127;-86
2022/07/29 06:16:39;;;;;;;2.28;1.05;;;;;;;16.22;87.33;101835.34;4895291;29;20499;-83
2022/07/29 06:19:05;;;;;;;2.17;0.90;;;;;;;16.37;86.73;101831.84;4894724;29;20065;-87
2022/07/29 06:21:30;;;;;;;1.05;0.90;;;;;;;16.50;86.15;101828.50;4906795;29;20028;-85
2022/07/29 06:23:56;;;;;;;1.67;1.30;;;;;;;16.63;85.17;101824.22;4912290;29;20415;-84
2022/07/29 06:26:22;;;;;;;2.08;1.08;;;;;;;16.69;84.82;101823.84;4910129;29;20063;-86
2022/07/29 06:28:48;;;;;;;1.88;0.95;;;;;;;16.75;84.46;101821.78;4911460;29;20400;-86
2022/07/29 06:31:14;;;;;;;2.03;1.02;;;;;;;16.80;84.24;101825.06;4910663;29;20055;-85
2022/07/29 06:33:39;;;;;;;1.35;1.02;;;;;;;16.84;84.20;101829.31;4881186;29;20546;-84
2022/07/29 06:36:05;;;;;;;1.60;1.00;;;;;;;16.99;83.99;101829.38;4911570;29;20038;-84
2022/07/29 06:38:32;;;;;;;2.00;1.02;;;;;;;17.21;84.00;101826.38;4882057;29;20044;-85
2022/07/29 06:41:02;;;;;;;2.67;1.00;;;;;;;17.36;83.80;101821.91;4912611;29;20059;-83
2022/07/29 06:43:31;;;;;;;2.22;1.20;;;;;;;17.49;83.31;101822.91;4895420;29;20995;-85
2022/07/29 06:45:59;;;;;;;2.10;1.00;;;;;;;17.63;82.80;101829.25;4892783;29;20475;-85
2022/07/29 06:48:24;;;;;;;2.38;1.10;;;;;;;17.64;81.73;101825.63;4894075;29;20050;-84
2022/07/29 06:50:50;;;;;;;0.90;0.90;;;;;;;17.55;80.84;101820.81;4894505;29;20031;-84
2022/07/29 06:53:15;;;;;;;3.97;2.80;;;;;;;17.50;80.54;101821.09;4893389;29;20047;-84
2022/07/29 06:55:42;;;;;;;1.35;1.17;;;;;;;17.41;80.93;101825.19;4885397;29;20359;-83
2022/07/29 06:58:08;;;;;;;1.63;1.35;;;;;;;17.36;80.93;101836.16;4894365;29;20040;-84
2022/07/29 07:00:35;;;;;;;1.08;0.90;;;;;;;17.33;81.11;101838.16;4881423;29;20698;-85
2022/07/29 07:03:00;;;;;;;1.98;0.82;;;;;;;17.28;80.92;101834.88;4884635;29;20491;-87
2022/07/29 07:05:26;;;;;;;1.48;1.00;;;;;;;17.23;81.12;101837.84;4893151;29;20032;-86
2022/07/29 07:07:51;;;;;;;2.08;1.40;;;;;;;17.23;81.14;101838.69;4893241;29;20028;-87
2022/07/29 07:10:17;;;;;;;1.08;0.93;;;;;;;17.24;81.51;101839.56;4893586;29;20042;-86
2022/07/29 07:12:42;;;;;;;1.13;1.02;;;;;;;17.26;81.29;101840.31;4901370;29;20079;-86
2022/07/29 07:15:08;;;;;;;1.00;0.90;;;;;;;17.23;80.98;101845.88;4910765;29;20213;-84
2022/07/29 07:17:34;;;;;;;1.90;1.10;;;;;;;17.21;81.06;101845.09;4910023;29;20052;-86
2022/07/29 07:19:59;;;;;;;1.20;1.10;;;;;;;17.18;80.80;101846.13;4910098;29;20126;-83
2022/07/29 07:22:25;;;;;;;2.38;1.20;;;;;;;17.17;81.01;101839.03;4894055;29;20075;-85
2022/07/29 07:24:50;;;;;;;2.42;1.10;;;;;;;17.19;80.80;101841.63;4894910;29;20031;-85
2022/07/29 07:27:16;;;;;;;1.90;1.27;;;;;;;17.19;80.98;101842.50;4907876;29;20060;-83
2022/07/29 07:29:41;;;;;;;1.92;1.20;;;;;;;17.20;80.89;101836.19;4910576;29;21987;-87
2022/07/29 07:32:07;;;;;;;3.83;1.15;;;;;;;17.22;80.30;101833.44;4894241;29;20039;-85
2022/07/29 07:34:33;;;;;;;3.33;1.00;;;;;;;17.18;80.05;101839.91;4894017;29;20085;-85
2022/07/29 07:36:58;;;;;;;3.80;1.40;;;;;;;17.11;80.12;101839.41;4911801;29;20436;-88
2022/07/29 07:39:25;;;;;;;3.90;1.60;;;;;;;17.14;80.55;101847.25;4894299;29;20529;-84
2022/07/29 07:41:54;;;;;;;3.05;1.40;;;;;;;17.16;80.03;101848.00;4899222;29;20050;-84
2022/07/29 07:44:19;;;;;;;2.55;1.15;;;;;;;17.21;79.96;101848.63;4883737;29;20048;-86
2022/07/29 07:46:45;;;;;;;1.15;1.05;;;;;;;17.28;79.86;101835.75;4909359;29;20028;-84
2022/07/29 07:49:11;;;;;;;4.32;1.50;;;;;;;17.38;79.72;101844.13;4893677;29;20050;-88
2022/07/29 07:51:36;;;;;;;1.98;1.08;;;;;;;17.42;78.76;101856.34;4893936;29;20028;-85
2022/07/29 07:54:02;;;;;;;1.48;1.30;;;;;;;17.47;78.44;101854.28;4891638;29;20042;-85
2022/07/29 07:56:30;;;;;;;2.25;1.23;;;;;;;17.56;78.32;101849.31;4892712;29;20032;-87
2022/07/29 07:58:56;;;;;;;2.22;1.30;;;;;;;17.65;78.48;101854.13;4884178;29;20098;-85
2022/07/29 08:01:22;;;;;;;3.70;1.42;;;;;;;17.75;78.57;101849.94;4893763;29;20043;-86
2022/07/29 08:03:49;;;;;;;2.05;1.40;;;;;;;17.90;78.61;101839.25;4911308;29;20032;-86
2022/07/29 08:06:15;;;;;;;1.60;1.38;;;;;;;18.10;78.17;101843.44;4893396;29;20115;-88
2022/07/29 08:08:40;;;;;;;1.67;1.25;;;;;;;18.22;77.17;101847.16;4897292;29;20111;-87
2022/07/29 08:11:06;;;;;;;2.03;1.00;;;;;;;18.26;77.27;101837.97;4908789;29;20027;-87
2022/07/29 08:13:32;;;;;;;1.10;1.02;;;;;;;18.30;76.94;101839.50;4891943;29;20485;-88
2022/07/29 08:15:59;;;;;;;1.30;1.00;;;;;;;18.28;76.64;101835.19;4869370;29;21473;-89
2022/07/29 08:18:26;;;;;;;1.73;1.02;;;;;;;18.26;76.59;101840.63;4879170;29;20044;-88
2022/07/29 08:20:52;;;;;;;1.52;1.27;;;;;;;18.24;76.53;101845.25;4911575;29;20038;-88
2022/07/29 08:23:21;;;;;;;1.92;1.30;;;;;;;18.22;76.21;101841.81;4913013;29;20040;-88
2022/07/29 08:25:47;;;;;;;1.95;1.35;;;;;;;18.14;76.08;101836.91;4895369;29;20040;-89
2022/07/29 08:28:12;;;;;;;3.10;1.17;;;;;;;18.08;76.51;101844.47;4912520;29;20462;-85
2022/07/29 08:30:38;;;;;;;2.13;1.40;;;;;;;17.99;76.64;101836.03;4892312;29;20178;-86
2022/07/29 08:33:03;;;;;;;1.88;1.05;;;;;;;18.00;77.00;101837.75;4909937;29;20028;-87
2022/07/29 08:35:29;;;;;;;1.90;1.00;;;;;;;17.97;76.71;101835.25;4911237;29;20328;-87
2022/07/29 08:37:56;;;;;;;2.90;1.60;;;;;;;17.94;77.02;101840.81;4912854;29;20103;-88
2022/07/29 08:40:23;;;;;;;1.77;1.23;;;;;;;17.85;76.96;101839.53;4896166;29;20042;-88
2022/07/29 08:42:49;;;;;;;3.53;1.55;;;;;;;17.79;76.91;101842.59;4902424;29;20035;-89
2022/07/29 08:45:15;;;;;;;2.10;1.30;;;;;;;17.76;77.09;101843.63;4904044;29;20035;-87
2022/07/29 08:47:41;;;;;;;1.65;1.30;;;;;;;17.72;77.15;101843.91;4909967;29;20035;-87
2022/07/29 08:50:08;;;;;;;2.50;1.15;;;;;;;17.70;77.40;101837.81;4892559;29;20032;-85
2022/07/29 08:52:36;;;;;;;2.40;1.38;;;;;;;17.68;77.81;101832.53;4911792;29;20534;-86
2022/07/29 08:55:06;;;;;;;2.85;1.25;;;;;;;17.66;77.59;101829.09;4891489;29;20036;-84
2022/07/29 08:57:32;;;;;;;1.52;1.27;;;;;;;17.67;77.96;101840.66;4907947;29;20135;-80
2022/07/29 09:00:00;;;;;;;2.55;1.52;;;;;;;17.62;77.73;101830.22;4910010;29;20040;-84
2022/07/29 09:02:28;;;;;;;2.80;1.30;;;;;;;17.61;78.31;101825.81;4877026;29;20521;-81
2022/07/29 09:04:53;;;;;;;3.08;1.35;;;;;;;17.63;78.17;101823.91;4890450;29;20036;-78
2022/07/29 09:07:20;;;;;;;2.85;1.40;;;;;;;17.65;78.17;101822.84;4907615;29;21751;-78
2022/07/29 09:09:47;;;;;;;2.25;1.27;;;;;;;17.67;77.67;101824.56;4894944;29;20557;-77
2022/07/29 09:12:13;;;;;;;5.28;1.70;;;;;;;17.72;78.28;101826.03;4911488;29;20653;-78
2022/07/29 09:14:39;;;;;;;3.17;1.60;;;;;;;17.77;78.00;101823.09;4893754;29;20098;-78
2022/07/29 09:17:06;;;;;;;3.00;1.77;;;;;;;17.81;77.63;101823.75;4911369;29;20078;-77
2022/07/29 09:19:34;;;;;;;1.60;1.38;;;;;;;17.83;77.47;101819.16;4893832;29;20450;-77
2022/07/29 09:22:02;;;;;;;5.75;1.60;;;;;;;17.76;77.28;101824.03;4893988;29;20123;-77
2022/07/29 09:24:45;;;;;;;3.03;1.50;;;;;;;17.77;77.03;101812.38;4912745;29;20352;-77
2022/07/29 09:27:22;;;;;;;2.17;1.20;;;;;;;17.72;77.83;101815.34;4909901;29;20036;-77
2022/07/29 09:30:07;;;;;;;2.65;1.40;;;;;;;17.76;77.98;101811.50;4911881;29;20183;-77
2022/07/29 09:32:33;;;;;;;1.92;1.50;;;;;;;17.74;77.85;101810.75;4899234;29;20039;-77
2022/07/29 09:35:16;;;;;;;1.85;1.35;;;;;;;17.74;78.04;101808.06;4885874;29;20427;-77
2022/07/29 09:37:42;;;;;;;2.88;1.83;;;;;;;17.75;78.43;101809.78;4912157;29;20175;-76
2022/07/29 09:40:13;;;;;;;1.98;1.40;;;;;;;17.71;78.28;101820.78;4912640;29;20036;-76
2022/07/29 09:42:39;;;;;;;2.65;1.77;;;;;;;17.68;78.96;101810.22;4912058;29;20050;-77
2022/07/29 09:45:05;;;;;;;2.78;1.60;;;;;;;17.60;78.95;101803.53;4912858;29;20040;-77
2022/07/29 09:47:50;;;;;;;6.05;1.90;;;;;;;17.57;80.16;101800.16;4912009;29;20374;-77
2022/07/29 09:50:18;;;;;;;2.80;1.50;;;;;;;17.51;79.98;101794.25;4909557;29;20502;-78
2022/07/29 09:52:50;;;;;;;2.05;1.40;;;;;;;17.47;79.98;101784.69;4894726;29;20043;-78
2022/07/29 09:55:17;;;;;;;2.35;1.80;;;;;;;17.41;80.40;101785.03;4869624;29;20052;-78
2022/07/29 09:57:43;;;;;;;1.70;1.60;;;;;;;17.38;80.50;101791.44;4911508;29;20041;-77
2022/07/29 10:00:14;;;;;;;1.90;1.60;;;;;;;17.42;80.94;101804.66;4912550;29;20478;-78
2022/07/29 10:02:43;;;;;;;3.17;1.60;;;;;;;17.47;81.17;101802.53;4879945;29;22138;-77
2022/07/29 10:05:29;;;;;;;4.07;2.00;;;;;;;17.52;81.71;101803.13;4912119;29;20032;-78
2022/07/29 10:07:58;;;;;;;1.95;1.58;;;;;;;17.58;81.26;101802.75;4894409;29;20378;-77
2022/07/29 10:10:29;;;;;;;3.25;1.70;;;;;;;17.65;81.64;101793.41;4895699;29;20501;-77
2022/07/29 10:13:05;;;;;;;5.40;2.17;;;;;;;17.78;81.17;101793.50;4894056;29;20071;-78
2022/07/29 10:15:33;;;;;;;1.90;1.67;;;;;;;17.92;80.69;101797.16;4869993;29;20127;-78
2022/07/29 10:17:59;;;;;;;1.85;1.73;;;;;;;18.04;80.81;101793.72;4894225;29;20458;-78
2022/07/29 10:20:26;;;;;;;2.10;1.50;;;;;;;18.18;80.75;101784.00;4910772;29;20562;-77
2022/07/29 10:22:53;;;;;;;2.75;1.80;;;;;;;18.27;80.45;101785.22;4893888;29;20442;-77
2022/07/29 10:25:19;;;;;;;4.10;1.83;;;;;;;18.38;80.08;101787.22;4912022;29;20501;-77
2022/07/29 10:27:46;;;;;;;2.58;1.92;;;;;;;18.48;79.90;101790.19;4885717;29;20040;-78
2022/07/29 10:30:14;;;;;;;2.63;1.60;;;;;;;18.51;79.38;101782.81;4893506;29;20032;-77
2022/07/29 10:32:49;;;;;;;3.42;1.90;;;;;;;18.54;79.20;101795.16;4894660;29;20403;-78
2022/07/29 10:35:20;;;;;;;2.63;1.75;;;;;;;18.57;79.17;101792.25;4911946;29;20042;-77
2022/07/29 10:38:10;;;;;;;5.00;1.67;;;;;;;18.61;78.71;101788.44;4910858;29;20198;-76
2022/07/29 10:43:42;;;;;;;1.50;1.33;;;;;;;18.52;78.20;101783.69;4911213;29;20050;-77
2022/07/29 10:46:08;;;;;;;3.67;1.67;;;;;;;18.50;78.66;101791.81;4884361;29;20507;-77
2022/07/29 10:48:34;;;;;;;4.82;1.80;;;;;;;18.54;78.79;101801.38;4881397;29;20230;-78
2022/07/29 10:51:03;;;;;;;1.92;1.60;;;;;;;18.57;78.75;101798.50;4911246;29;20035;-77
2022/07/29 10:53:50;;;;;;;2.92;1.63;;;;;;;18.61;78.32;101804.53;4910964;29;20035;-77
2022/07/29 10:56:35;;;;;;;2.67;1.73;;;;;;;18.65;78.44;101805.19;4909427;29;20051;-77
2022/07/29 10:59:23;;;;;;;3.85;1.83;;;;;;;18.66;77.01;101801.53;4892180;29;20055;-76
2022/07/29 11:01:50;;;;;;;8.43;2.33;;;;;;;18.64;78.26;101795.41;4900823;29;20111;-77
2022/07/29 11:04:36;;;;;;;3.35;2.05;;;;;;;18.60;78.04;101789.41;4893357;29;20050;-77
2022/07/29 11:07:05;;;;;;;3.35;1.67;;;;;;;18.56;77.43;101796.78;4910348;29;20032;-78
2022/07/29 11:09:31;;;;;;;21.85;4.40;;;;;;;18.54;77.78;101796.03;4911240;29;20135;-78
2022/07/29 11:12:00;;;;;;;4.38;1.85;;;;;;;18.53;77.73;101793.44;4896813;29;20031;-78
2022/07/29 11:14:54;;;;;;;2.83;1.98;;;;;;;18.49;77.22;101798.13;4910464;29;20119;-78
2022/07/29 11:17:20;;;;;;;3.58;2.17;;;;;;;18.47;77.82;101792.03;4910906;29;20031;-78
2022/07/29 11:19:46;;;;;;;18.25;2.90;;;;;;;18.48;77.74;101800.91;4893550;29;20039;-78
2022/07/29 11:22:32;;;;;;;2.40;1.80;;;;;;;18.50;77.70;101794.50;4893139;29;20386;-78
2022/07/29 11:25:14;;;;;;;2.38;1.60;;;;;;;18.55;77.56;101799.56;4894467;29;20032;-78
2022/07/29 11:27:40;;;;;;;7.20;1.83;;;;;;;18.52;77.30;101792.56;4908489;29;21494;-80
2022/07/29 11:30:06;;;;;;;2.03;1.73;;;;;;;18.49;77.25;101790.09;4904077;29;20039;-81
2022/07/29 11:32:39;;;;;;;2.80;1.60;;;;;;;18.49;77.44;101795.44;4910907;29;20066;-80
2022/07/29 11:35:20;;;;;;;3.55;1.92;;;;;;;18.52;77.42;101794.41;4910858;29;20122;-81
2022/07/29 11:37:47;;;;;;;2.58;1.70;;;;;;;18.51;77.36;101790.00;4877696;29;20047;-81